sensor_id;sensor_type;location;lat;lon;timestamp;P1;durP1;ratioP1;P2;durP2;ratioP2
7531;SDS011;3807;49.030;8.714;2022-09-24T00:00:40;7.80;;;5.37;;
7531;SDS011;3807;49.030;8.714;2022-09-24T00:03:05;6.20;;;4.57;;
7531;SDS011;3807;49.030;8.714;2022-09-24T00:05:35;8.77;;;5.10;;
7531;SDS011;3807;49.030;8.714;2022-09-24T00:08:01;7.20;;;5.43;;
7531;SDS011;3807;49.030;8.714;2022-09-24T00:10:26;9.97;;;4.97;;
7531;SDS011;3807;49.030;8.714;2022-09-24T00:12:52;8.10;;;4.57;;
7531;SDS011;3807;49.030;8.714;2022-09-24T00:15:17;9.57;;;4.77;;
7531;SDS011;3807;49.030;8.714;2022-09-24T00:17:42;10.07;;;4.80;;
7531;SDS011;3807;49.030;8.714;2022-09-24T00:20:08;6.97;;;4.93;;
7531;SDS011;3807;49.030;8.714;2022-09-24T00:22:33;6.33;;;4.90;;
7531;SDS011;3807;49.030;8.714;2022-09-24T00:24:58;6.40;;;5.20;;
7531;SDS011;3807;49.030;8.714;2022-09-24T00:27:43;7.77;;;4.57;;
7531;SDS011;3807;49.030;8.714;2022-09-24T00:30:08;6.63;;;4.73;;
7531;SDS011;3807;49.030;8.714;2022-09-24T00:32:34;7.50;;;4.90;;
7531;SDS011;3807;49.030;8.714;2022-09-24T00:34:59;6.83;;;4.80;;
7531;SDS011;3807;49.030;8.714;2022-09-24T00:37:24;6.00;;;4.83;;
7531;SDS011;3807;49.030;8.714;2022-09-24T00:39:50;8.13;;;5.07;;
7531;SDS011;3807;49.030;8.714;2022-09-24T00:42:17;7.67;;;5.17;;
7531;SDS011;3807;49.030;8.714;2022-09-24T00:44:47;7.10;;;5.07;;
7531;SDS011;3807;49.030;8.714;2022-09-24T00:49:53;6.10;;;4.53;;
7531;SDS011;3807;49.030;8.714;2022-09-24T00:52:26;6.30;;;4.90;;
7531;SDS011;3807;49.030;8.714;2022-09-24T00:54:51;5.73;;;4.60;;
7531;SDS011;3807;49.030;8.714;2022-09-24T00:57:17;6.23;;;4.43;;
7531;SDS011;3807;49.030;8.714;2022-09-24T00:59:43;8.63;;;5.00;;
7531;SDS011;3807;49.030;8.714;2022-09-24T01:02:09;6.97;;;4.43;;
7531;SDS011;3807;49.030;8.714;2022-09-24T01:04:35;5.87;;;4.67;;
7531;SDS011;3807;49.030;8.714;2022-09-24T01:07:00;7.00;;;4.40;;
7531;SDS011;3807;49.030;8.714;2022-09-24T01:09:26;10.43;;;4.43;;
7531;SDS011;3807;49.030;8.714;2022-09-24T01:17:11;7.23;;;4.83;;
7531;SDS011;3807;49.030;8.714;2022-09-24T01:23:01;5.63;;;4.00;;
7531;SDS011;3807;49.030;8.714;2022-09-24T01:31:44;7.33;;;5.30;;
7531;SDS011;3807;49.030;8.714;2022-09-24T01:34:36;7.23;;;4.73;;
7531;SDS011;3807;49.030;8.714;2022-09-24T01:37:06;6.10;;;4.27;;
7531;SDS011;3807;49.030;8.714;2022-09-24T01:39:32;7.87;;;5.10;;
7531;SDS011;3807;49.030;8.714;2022-09-24T01:42:01;11.27;;;5.30;;
7531;SDS011;3807;49.030;8.714;2022-09-24T01:44:27;8.53;;;5.37;;
7531;SDS011;3807;49.030;8.714;2022-09-24T01:46:53;6.10;;;5.13;;
7531;SDS011;3807;49.030;8.714;2022-09-24T01:49:19;5.37;;;4.47;;
7531;SDS011;3807;49.030;8.714;2022-09-24T01:51:46;7.87;;;5.20;;
7531;SDS011;3807;49.030;8.714;2022-09-24T01:54:17;6.20;;;4.70;;
7531;SDS011;3807;49.030;8.714;2022-09-24T01:56:48;7.90;;;5.30;;
7531;SDS011;3807;49.030;8.714;2022-09-24T01:59:24;8.63;;;5.83;;
7531;SDS011;3807;49.030;8.714;2022-09-24T02:01:56;9.93;;;6.00;;
7531;SDS011;3807;49.030;8.714;2022-09-24T02:04:28;8.00;;;5.10;;
7531;SDS011;3807;49.030;8.714;2022-09-24T02:06:59;6.07;;;5.47;;
7531;SDS011;3807;49.030;8.714;2022-09-24T02:09:32;7.03;;;5.10;;
7531;SDS011;3807;49.030;8.714;2022-09-24T02:12:04;7.07;;;5.33;;
7531;SDS011;3807;49.030;8.714;2022-09-24T02:14:44;6.00;;;4.90;;
7531;SDS011;3807;49.030;8.714;2022-09-24T02:17:13;7.97;;;5.20;;
7531;SDS011;3807;49.030;8.714;2022-09-24T02:19:39;6.23;;;5.23;;
7531;SDS011;3807;49.030;8.714;2022-09-24T02:22:06;5.83;;;4.80;;
7531;SDS011;3807;49.030;8.714;2022-09-24T02:24:47;9.33;;;4.83;;
7531;SDS011;3807;49.030;8.714;2022-09-24T02:27:16;6.97;;;4.93;;
7531;SDS011;3807;49.030;8.714;2022-09-24T02:29:42;6.17;;;5.50;;
7531;SDS011;3807;49.030;8.714;2022-09-24T02:32:09;9.13;;;5.40;;
7531;SDS011;3807;49.030;8.714;2022-09-24T02:34:38;9.77;;;5.30;;
7531;SDS011;3807;49.030;8.714;2022-09-24T02:37:09;7.53;;;5.30;;
7531;SDS011;3807;49.030;8.714;2022-09-24T02:39:35;6.23;;;5.33;;
7531;SDS011;3807;49.030;8.714;2022-09-24T02:42:01;13.27;;;6.97;;
7531;SDS011;3807;49.030;8.714;2022-09-24T02:44:29;7.03;;;5.17;;
7531;SDS011;3807;49.030;8.714;2022-09-24T02:46:55;9.73;;;5.97;;
7531;SDS011;3807;49.030;8.714;2022-09-24T02:49:21;6.90;;;5.93;;
7531;SDS011;3807;49.030;8.714;2022-09-24T02:51:46;7.53;;;6.03;;
7531;SDS011;3807;49.030;8.714;2022-09-24T02:54:12;11.23;;;6.03;;
7531;SDS011;3807;49.030;8.714;2022-09-24T02:56:37;7.27;;;6.03;;
7531;SDS011;3807;49.030;8.714;2022-09-24T02:59:03;10.77;;;6.33;;
7531;SDS011;3807;49.030;8.714;2022-09-24T03:01:29;7.47;;;6.30;;
7531;SDS011;3807;49.030;8.714;2022-09-24T03:03:55;7.60;;;4.87;;
7531;SDS011;3807;49.030;8.714;2022-09-24T03:06:20;13.97;;;6.60;;
7531;SDS011;3807;49.030;8.714;2022-09-24T03:08:46;9.00;;;6.23;;
7531;SDS011;3807;49.030;8.714;2022-09-24T03:11:12;9.87;;;6.00;;
7531;SDS011;3807;49.030;8.714;2022-09-24T03:13:38;12.63;;;6.50;;
7531;SDS011;3807;49.030;8.714;2022-09-24T03:16:04;9.50;;;6.80;;
7531;SDS011;3807;49.030;8.714;2022-09-24T03:18:31;10.60;;;6.53;;
7531;SDS011;3807;49.030;8.714;2022-09-24T03:20:58;9.00;;;6.70;;
7531;SDS011;3807;49.030;8.714;2022-09-24T03:23:24;12.53;;;6.37;;
7531;SDS011;3807;49.030;8.714;2022-09-24T03:25:50;9.87;;;6.50;;
7531;SDS011;3807;49.030;8.714;2022-09-24T03:28:16;7.63;;;6.03;;
7531;SDS011;3807;49.030;8.714;2022-09-24T03:30:42;7.57;;;5.63;;
7531;SDS011;3807;49.030;8.714;2022-09-24T03:33:24;8.20;;;6.00;;
7531;SDS011;3807;49.030;8.714;2022-09-24T03:36:11;6.93;;;5.87;;
7531;SDS011;3807;49.030;8.714;2022-09-24T03:38:53;12.20;;;5.37;;
7531;SDS011;3807;49.030;8.714;2022-09-24T03:41:20;12.00;;;5.97;;
7531;SDS011;3807;49.030;8.714;2022-09-24T03:43:47;8.80;;;6.13;;
7531;SDS011;3807;49.030;8.714;2022-09-24T03:46:12;9.53;;;6.10;;
7531;SDS011;3807;49.030;8.714;2022-09-24T03:48:41;5.33;;;4.57;;
7531;SDS011;3807;49.030;8.714;2022-09-24T03:51:08;7.63;;;5.17;;
7531;SDS011;3807;49.030;8.714;2022-09-24T03:53:35;4.43;;;4.03;;
7531;SDS011;3807;49.030;8.714;2022-09-24T03:56:00;6.13;;;4.27;;
7531;SDS011;3807;49.030;8.714;2022-09-24T03:58:27;5.67;;;4.30;;
7531;SDS011;3807;49.030;8.714;2022-09-24T04:00:55;7.03;;;4.53;;
7531;SDS011;3807;49.030;8.714;2022-09-24T04:03:21;6.27;;;4.27;;
7531;SDS011;3807;49.030;8.714;2022-09-24T04:05:48;12.00;;;4.97;;
7531;SDS011;3807;49.030;8.714;2022-09-24T04:08:15;4.70;;;3.73;;
7531;SDS011;3807;49.030;8.714;2022-09-24T04:10:43;7.10;;;5.53;;
7531;SDS011;3807;49.030;8.714;2022-09-24T04:13:10;5.83;;;4.30;;
7531;SDS011;3807;49.030;8.714;2022-09-24T04:15:35;8.13;;;4.10;;
7531;SDS011;3807;49.030;8.714;2022-09-24T04:18:01;6.33;;;3.77;;
7531;SDS011;3807;49.030;8.714;2022-09-24T04:20:27;10.57;;;4.90;;
7531;SDS011;3807;49.030;8.714;2022-09-24T04:22:56;6.13;;;4.00;;
7531;SDS011;3807;49.030;8.714;2022-09-24T04:25:23;8.13;;;5.63;;
7531;SDS011;3807;49.030;8.714;2022-09-24T04:27:59;9.73;;;6.87;;
7531;SDS011;3807;49.030;8.714;2022-09-24T04:30:27;10.53;;;6.20;;
7531;SDS011;3807;49.030;8.714;2022-09-24T04:32:54;8.27;;;5.47;;
7531;SDS011;3807;49.030;8.714;2022-09-24T04:35:22;5.63;;;3.87;;
7531;SDS011;3807;49.030;8.714;2022-09-24T04:37:48;7.47;;;3.80;;
7531;SDS011;3807;49.030;8.714;2022-09-24T04:40:14;7.53;;;3.80;;
7531;SDS011;3807;49.030;8.714;2022-09-24T04:42:41;6.47;;;4.10;;
7531;SDS011;3807;49.030;8.714;2022-09-24T04:45:07;12.57;;;4.17;;
7531;SDS011;3807;49.030;8.714;2022-09-24T04:47:34;6.30;;;4.50;;
7531;SDS011;3807;49.030;8.714;2022-09-24T04:50:01;4.63;;;3.90;;
7531;SDS011;3807;49.030;8.714;2022-09-24T04:52:28;6.57;;;3.97;;
7531;SDS011;3807;49.030;8.714;2022-09-24T04:54:57;8.80;;;4.23;;
7531;SDS011;3807;49.030;8.714;2022-09-24T04:57:23;5.00;;;4.30;;
7531;SDS011;3807;49.030;8.714;2022-09-24T04:59:49;7.07;;;4.60;;
7531;SDS011;3807;49.030;8.714;2022-09-24T05:02:14;7.03;;;4.33;;
7531;SDS011;3807;49.030;8.714;2022-09-24T05:04:40;7.50;;;4.40;;
7531;SDS011;3807;49.030;8.714;2022-09-24T05:07:07;5.50;;;4.10;;
7531;SDS011;3807;49.030;8.714;2022-09-24T05:09:33;6.60;;;4.57;;
7531;SDS011;3807;49.030;8.714;2022-09-24T05:11:59;7.10;;;4.60;;
7531;SDS011;3807;49.030;8.714;2022-09-24T05:14:25;29.27;;;16.97;;
7531;SDS011;3807;49.030;8.714;2022-09-24T05:16:50;11.40;;;7.97;;
7531;SDS011;3807;49.030;8.714;2022-09-24T05:19:16;7.40;;;5.00;;
7531;SDS011;3807;49.030;8.714;2022-09-24T05:21:41;5.80;;;4.80;;
7531;SDS011;3807;49.030;8.714;2022-09-24T05:24:07;8.73;;;4.70;;
7531;SDS011;3807;49.030;8.714;2022-09-24T05:26:32;8.43;;;5.43;;
7531;SDS011;3807;49.030;8.714;2022-09-24T05:29:17;6.37;;;5.07;;
7531;SDS011;3807;49.030;8.714;2022-09-24T05:31:42;8.83;;;6.10;;
7531;SDS011;3807;49.030;8.714;2022-09-24T05:34:08;6.20;;;5.07;;
7531;SDS011;3807;49.030;8.714;2022-09-24T05:36:33;6.80;;;4.93;;
7531;SDS011;3807;49.030;8.714;2022-09-24T05:38:59;10.47;;;5.10;;
7531;SDS011;3807;49.030;8.714;2022-09-24T05:41:24;8.77;;;5.67;;
7531;SDS011;3807;49.030;8.714;2022-09-24T05:43:50;11.60;;;5.73;;
7531;SDS011;3807;49.030;8.714;2022-09-24T05:46:15;7.43;;;5.23;;
7531;SDS011;3807;49.030;8.714;2022-09-24T05:48:41;9.53;;;6.30;;
7531;SDS011;3807;49.030;8.714;2022-09-24T05:51:06;12.60;;;6.83;;
7531;SDS011;3807;49.030;8.714;2022-09-24T05:53:31;8.03;;;6.40;;
7531;SDS011;3807;49.030;8.714;2022-09-24T05:55:57;10.87;;;6.57;;
7531;SDS011;3807;49.030;8.714;2022-09-24T05:58:23;10.70;;;7.27;;
7531;SDS011;3807;49.030;8.714;2022-09-24T06:00:49;19.07;;;8.77;;
7531;SDS011;3807;49.030;8.714;2022-09-24T06:03:15;19.50;;;7.17;;
7531;SDS011;3807;49.030;8.714;2022-09-24T06:05:45;15.40;;;8.70;;
7531;SDS011;3807;49.030;8.714;2022-09-24T06:08:12;16.30;;;10.87;;
7531;SDS011;3807;49.030;8.714;2022-09-24T06:10:39;21.00;;;10.13;;
7531;SDS011;3807;49.030;8.714;2022-09-24T06:13:10;15.10;;;9.53;;
7531;SDS011;3807;49.030;8.714;2022-09-24T06:15:39;14.63;;;7.93;;
7531;SDS011;3807;49.030;8.714;2022-09-24T06:18:07;16.03;;;8.57;;
7531;SDS011;3807;49.030;8.714;2022-09-24T06:20:34;11.40;;;7.87;;
7531;SDS011;3807;49.030;8.714;2022-09-24T06:22:59;11.87;;;7.77;;
7531;SDS011;3807;49.030;8.714;2022-09-24T06:25:26;10.63;;;6.77;;
7531;SDS011;3807;49.030;8.714;2022-09-24T06:27:55;9.97;;;7.30;;
7531;SDS011;3807;49.030;8.714;2022-09-24T06:30:24;13.00;;;7.57;;
7531;SDS011;3807;49.030;8.714;2022-09-24T06:32:51;14.00;;;7.77;;
7531;SDS011;3807;49.030;8.714;2022-09-24T06:35:16;10.43;;;7.77;;
7531;SDS011;3807;49.030;8.714;2022-09-24T06:37:42;8.70;;;7.10;;
7531;SDS011;3807;49.030;8.714;2022-09-24T06:40:07;10.77;;;7.00;;
7531;SDS011;3807;49.030;8.714;2022-09-24T06:42:33;10.20;;;7.20;;
7531;SDS011;3807;49.030;8.714;2022-09-24T06:44:58;10.70;;;7.73;;
7531;SDS011;3807;49.030;8.714;2022-09-24T06:47:24;10.10;;;7.13;;
7531;SDS011;3807;49.030;8.714;2022-09-24T06:49:50;12.40;;;7.10;;
7531;SDS011;3807;49.030;8.714;2022-09-24T06:52:15;10.13;;;6.27;;
7531;SDS011;3807;49.030;8.714;2022-09-24T06:54:41;11.23;;;6.40;;
7531;SDS011;3807;49.030;8.714;2022-09-24T06:57:06;10.90;;;6.50;;
7531;SDS011;3807;49.030;8.714;2022-09-24T06:59:31;10.93;;;6.63;;
7531;SDS011;3807;49.030;8.714;2022-09-24T07:01:57;12.80;;;9.17;;
7531;SDS011;3807;49.030;8.714;2022-09-24T07:04:23;10.93;;;8.23;;
7531;SDS011;3807;49.030;8.714;2022-09-24T07:06:48;10.33;;;7.67;;
7531;SDS011;3807;49.030;8.714;2022-09-24T07:09:32;13.27;;;8.67;;
7531;SDS011;3807;49.030;8.714;2022-09-24T07:11:57;9.23;;;7.17;;
7531;SDS011;3807;49.030;8.714;2022-09-24T07:14:25;9.90;;;6.43;;
7531;SDS011;3807;49.030;8.714;2022-09-24T07:16:50;9.40;;;7.10;;
7531;SDS011;3807;49.030;8.714;2022-09-24T07:19:17;12.17;;;6.97;;
7531;SDS011;3807;49.030;8.714;2022-09-24T07:21:43;9.93;;;7.53;;
7531;SDS011;3807;49.030;8.714;2022-09-24T07:24:08;12.40;;;8.03;;
7531;SDS011;3807;49.030;8.714;2022-09-24T07:26:33;12.53;;;7.73;;
7531;SDS011;3807;49.030;8.714;2022-09-24T07:28:59;13.70;;;9.00;;
7531;SDS011;3807;49.030;8.714;2022-09-24T07:31:24;12.30;;;8.50;;
7531;SDS011;3807;49.030;8.714;2022-09-24T07:33:50;16.53;;;8.40;;
7531;SDS011;3807;49.030;8.714;2022-09-24T07:36:17;11.43;;;8.10;;
7531;SDS011;3807;49.030;8.714;2022-09-24T07:38:42;12.10;;;8.20;;
7531;SDS011;3807;49.030;8.714;2022-09-24T07:41:08;11.77;;;8.70;;
7531;SDS011;3807;49.030;8.714;2022-09-24T07:43:34;9.57;;;7.63;;
7531;SDS011;3807;49.030;8.714;2022-09-24T07:46:00;11.33;;;7.53;;
7531;SDS011;3807;49.030;8.714;2022-09-24T07:48:25;9.97;;;7.47;;
7531;SDS011;3807;49.030;8.714;2022-09-24T07:50:50;12.13;;;6.53;;
7531;SDS011;3807;49.030;8.714;2022-09-24T07:53:16;9.80;;;6.40;;
7531;SDS011;3807;49.030;8.714;2022-09-24T07:55:41;11.13;;;7.73;;
7531;SDS011;3807;49.030;8.714;2022-09-24T07:58:07;16.43;;;7.80;;
7531;SDS011;3807;49.030;8.714;2022-09-24T08:00:36;11.93;;;8.57;;
7531;SDS011;3807;49.030;8.714;2022-09-24T08:03:01;10.17;;;7.87;;
7531;SDS011;3807;49.030;8.714;2022-09-24T08:05:27;13.03;;;7.13;;
7531;SDS011;3807;49.030;8.714;2022-09-24T08:07:53;10.27;;;7.67;;
7531;SDS011;3807;49.030;8.714;2022-09-24T08:10:20;11.10;;;7.30;;
7531;SDS011;3807;49.030;8.714;2022-09-24T08:12:46;11.33;;;7.50;;
7531;SDS011;3807;49.030;8.714;2022-09-24T08:15:12;12.80;;;7.60;;
7531;SDS011;3807;49.030;8.714;2022-09-24T08:17:37;12.20;;;8.60;;
7531;SDS011;3807;49.030;8.714;2022-09-24T08:20:03;11.13;;;7.10;;
7531;SDS011;3807;49.030;8.714;2022-09-24T08:22:28;9.67;;;6.93;;
7531;SDS011;3807;49.030;8.714;2022-09-24T08:24:55;10.30;;;7.33;;
7531;SDS011;3807;49.030;8.714;2022-09-24T08:27:21;10.40;;;8.40;;
7531;SDS011;3807;49.030;8.714;2022-09-24T08:29:49;11.70;;;7.30;;
7531;SDS011;3807;49.030;8.714;2022-09-24T08:32:15;12.67;;;7.73;;
7531;SDS011;3807;49.030;8.714;2022-09-24T08:34:41;10.30;;;7.40;;
7531;SDS011;3807;49.030;8.714;2022-09-24T08:37:07;11.53;;;8.53;;
7531;SDS011;3807;49.030;8.714;2022-09-24T08:39:33;10.47;;;7.70;;
7531;SDS011;3807;49.030;8.714;2022-09-24T08:42:00;12.43;;;8.27;;
7531;SDS011;3807;49.030;8.714;2022-09-24T08:44:28;9.83;;;7.80;;
7531;SDS011;3807;49.030;8.714;2022-09-24T08:47:32;14.90;;;8.23;;
7531;SDS011;3807;49.030;8.714;2022-09-24T08:50:05;7.77;;;6.80;;
7531;SDS011;3807;49.030;8.714;2022-09-24T08:55:15;10.57;;;7.80;;
7531;SDS011;3807;49.030;8.714;2022-09-24T08:58:01;11.20;;;7.27;;
7531;SDS011;3807;49.030;8.714;2022-09-24T09:00:34;10.63;;;7.93;;
7531;SDS011;3807;49.030;8.714;2022-09-24T09:03:11;12.27;;;7.97;;
7531;SDS011;3807;49.030;8.714;2022-09-24T09:06:01;14.20;;;9.53;;
7531;SDS011;3807;49.030;8.714;2022-09-24T09:11:46;13.47;;;7.70;;
7531;SDS011;3807;49.030;8.714;2022-09-24T09:14:18;11.10;;;7.97;;
7531;SDS011;3807;49.030;8.714;2022-09-24T09:16:53;9.60;;;7.20;;
7531;SDS011;3807;49.030;8.714;2022-09-24T09:19:25;10.83;;;8.00;;
7531;SDS011;3807;49.030;8.714;2022-09-24T09:22:02;11.17;;;7.97;;
7531;SDS011;3807;49.030;8.714;2022-09-24T09:24:37;12.33;;;8.07;;
7531;SDS011;3807;49.030;8.714;2022-09-24T09:27:11;11.27;;;8.43;;
7531;SDS011;3807;49.030;8.714;2022-09-24T09:29:44;8.80;;;7.07;;
7531;SDS011;3807;49.030;8.714;2022-09-24T09:38:20;7.83;;;6.10;;
7531;SDS011;3807;49.030;8.714;2022-09-24T09:43:24;8.80;;;7.40;;
7531;SDS011;3807;49.030;8.714;2022-09-24T09:48:44;12.43;;;7.50;;
7531;SDS011;3807;49.030;8.714;2022-09-24T09:51:17;9.70;;;8.33;;
7531;SDS011;3807;49.030;8.714;2022-09-24T09:53:54;11.27;;;6.90;;
7531;SDS011;3807;49.030;8.714;2022-09-24T09:56:21;10.03;;;7.97;;
7531;SDS011;3807;49.030;8.714;2022-09-24T09:59:14;8.93;;;7.77;;
7531;SDS011;3807;49.030;8.714;2022-09-24T10:01:44;11.47;;;7.60;;
7531;SDS011;3807;49.030;8.714;2022-09-24T10:04:24;12.97;;;6.47;;
7531;SDS011;3807;49.030;8.714;2022-09-24T10:09:35;8.07;;;6.93;;
7531;SDS011;3807;49.030;8.714;2022-09-24T10:12:14;13.27;;;7.63;;
7531;SDS011;3807;49.030;8.714;2022-09-24T10:14:43;8.07;;;6.77;;
7531;SDS011;3807;49.030;8.714;2022-09-24T10:17:26;11.37;;;7.60;;
7531;SDS011;3807;49.030;8.714;2022-09-24T10:19:54;11.83;;;7.07;;
7531;SDS011;3807;49.030;8.714;2022-09-24T10:22:21;12.00;;;7.53;;
7531;SDS011;3807;49.030;8.714;2022-09-24T10:24:50;10.10;;;7.23;;
7531;SDS011;3807;49.030;8.714;2022-09-24T10:27:26;7.37;;;6.50;;
7531;SDS011;3807;49.030;8.714;2022-09-24T10:29:53;9.40;;;7.47;;
7531;SDS011;3807;49.030;8.714;2022-09-24T10:32:39;9.00;;;6.77;;
7531;SDS011;3807;49.030;8.714;2022-09-24T10:35:19;14.50;;;7.80;;
7531;SDS011;3807;49.030;8.714;2022-09-24T10:37:54;8.10;;;6.17;;
7531;SDS011;3807;49.030;8.714;2022-09-24T10:40:22;13.50;;;7.47;;
7531;SDS011;3807;49.030;8.714;2022-09-24T10:43:02;10.10;;;7.07;;
7531;SDS011;3807;49.030;8.714;2022-09-24T10:45:38;7.10;;;6.40;;
7531;SDS011;3807;49.030;8.714;2022-09-24T10:48:20;8.63;;;6.33;;
7531;SDS011;3807;49.030;8.714;2022-09-24T10:56:39;15.37;;;8.17;;
7531;SDS011;3807;49.030;8.714;2022-09-24T11:05:03;15.40;;;7.80;;
7531;SDS011;3807;49.030;8.714;2022-09-24T11:18:55;8.83;;;7.10;;
7531;SDS011;3807;49.030;8.714;2022-09-24T11:24:47;9.33;;;6.57;;
7531;SDS011;3807;49.030;8.714;2022-09-24T11:27:24;10.33;;;7.20;;
7531;SDS011;3807;49.030;8.714;2022-09-24T11:30:00;9.47;;;6.53;;
7531;SDS011;3807;49.030;8.714;2022-09-24T11:40:19;9.87;;;7.23;;
7531;SDS011;3807;49.030;8.714;2022-09-24T11:51:54;8.57;;;5.60;;
7531;SDS011;3807;49.030;8.714;2022-09-24T11:57:22;7.20;;;5.47;;
7531;SDS011;3807;49.030;8.714;2022-09-24T12:00:05;10.83;;;6.23;;
7531;SDS011;3807;49.030;8.714;2022-09-24T12:03:19;9.97;;;5.77;;
7531;SDS011;3807;49.030;8.714;2022-09-24T12:05:27;8.60;;;5.73;;
7531;SDS011;3807;49.030;8.714;2022-09-24T12:08:14;11.23;;;7.33;;
7531;SDS011;3807;49.030;8.714;2022-09-24T12:13:18;11.17;;;6.43;;
7531;SDS011;3807;49.030;8.714;2022-09-24T12:15:46;6.77;;;5.70;;
7531;SDS011;3807;49.030;8.714;2022-09-24T12:18:24;9.33;;;5.47;;
7531;SDS011;3807;49.030;8.714;2022-09-24T12:20:54;7.30;;;6.27;;
7531;SDS011;3807;49.030;8.714;2022-09-24T12:23:26;9.57;;;6.00;;
7531;SDS011;3807;49.030;8.714;2022-09-24T12:25:56;8.13;;;6.07;;
7531;SDS011;3807;49.030;8.714;2022-09-24T12:28:23;8.37;;;5.17;;
7531;SDS011;3807;49.030;8.714;2022-09-24T12:31:26;7.57;;;5.40;;
7531;SDS011;3807;49.030;8.714;2022-09-24T12:34:39;6.80;;;5.00;;
7531;SDS011;3807;49.030;8.714;2022-09-24T12:37:09;7.00;;;5.13;;
7531;SDS011;3807;49.030;8.714;2022-09-24T12:39:55;7.83;;;5.60;;
7531;SDS011;3807;49.030;8.714;2022-09-24T12:42:44;8.90;;;5.73;;
7531;SDS011;3807;49.030;8.714;2022-09-24T12:45:16;7.87;;;5.50;;
7531;SDS011;3807;49.030;8.714;2022-09-24T12:47:53;7.30;;;5.73;;
7531;SDS011;3807;49.030;8.714;2022-09-24T12:50:25;6.97;;;5.47;;
7531;SDS011;3807;49.030;8.714;2022-09-24T12:52:53;7.17;;;5.10;;
7531;SDS011;3807;49.030;8.714;2022-09-24T12:58:05;6.93;;;5.40;;
7531;SDS011;3807;49.030;8.714;2022-09-24T13:00:39;9.27;;;5.30;;
7531;SDS011;3807;49.030;8.714;2022-09-24T13:03:05;6.57;;;5.20;;
7531;SDS011;3807;49.030;8.714;2022-09-24T13:05:51;7.77;;;5.13;;
7531;SDS011;3807;49.030;8.714;2022-09-24T13:10:52;7.03;;;6.17;;
7531;SDS011;3807;49.030;8.714;2022-09-24T13:13:29;6.70;;;5.23;;
7531;SDS011;3807;49.030;8.714;2022-09-24T13:15:58;9.17;;;5.50;;
7531;SDS011;3807;49.030;8.714;2022-09-24T13:18:25;10.27;;;5.60;;
7531;SDS011;3807;49.030;8.714;2022-09-24T13:21:01;6.10;;;5.03;;
7531;SDS011;3807;49.030;8.714;2022-09-24T13:23:31;8.30;;;5.60;;
7531;SDS011;3807;49.030;8.714;2022-09-24T13:28:52;6.07;;;4.80;;
7531;SDS011;3807;49.030;8.714;2022-09-24T13:31:38;7.97;;;4.80;;
7531;SDS011;3807;49.030;8.714;2022-09-24T13:37:01;6.67;;;4.63;;
7531;SDS011;3807;49.030;8.714;2022-09-24T13:39:54;6.80;;;4.80;;
7531;SDS011;3807;49.030;8.714;2022-09-24T13:45:10;7.97;;;4.10;;
7531;SDS011;3807;49.030;8.714;2022-09-24T13:47:42;9.70;;;4.47;;
7531;SDS011;3807;49.030;8.714;2022-09-24T13:52:51;8.57;;;4.80;;
7531;SDS011;3807;49.030;8.714;2022-09-24T13:55:25;6.17;;;4.03;;
7531;SDS011;3807;49.030;8.714;2022-09-24T13:57:51;6.50;;;4.20;;
7531;SDS011;3807;49.030;8.714;2022-09-24T14:00:19;6.47;;;4.40;;
7531;SDS011;3807;49.030;8.714;2022-09-24T14:03:02;7.97;;;4.60;;
7531;SDS011;3807;49.030;8.714;2022-09-24T14:05:36;8.27;;;4.63;;
7531;SDS011;3807;49.030;8.714;2022-09-24T14:08:06;6.60;;;4.50;;
7531;SDS011;3807;49.030;8.714;2022-09-24T14:10:35;8.20;;;4.30;;
7531;SDS011;3807;49.030;8.714;2022-09-24T14:13:06;6.20;;;4.00;;
7531;SDS011;3807;49.030;8.714;2022-09-24T14:15:59;4.47;;;3.77;;
7531;SDS011;3807;49.030;8.714;2022-09-24T14:18:32;7.10;;;4.20;;
7531;SDS011;3807;49.030;8.714;2022-09-24T14:20:59;6.37;;;4.63;;
7531;SDS011;3807;49.030;8.714;2022-09-24T14:23:34;6.80;;;4.93;;
7531;SDS011;3807;49.030;8.714;2022-09-24T14:26:03;5.40;;;4.27;;
7531;SDS011;3807;49.030;8.714;2022-09-24T14:28:29;6.57;;;4.53;;
7531;SDS011;3807;49.030;8.714;2022-09-24T14:30:57;11.00;;;4.80;;
7531;SDS011;3807;49.030;8.714;2022-09-24T14:33:24;5.77;;;5.07;;
7531;SDS011;3807;49.030;8.714;2022-09-24T14:35:55;6.20;;;4.60;;
7531;SDS011;3807;49.030;8.714;2022-09-24T14:38:27;6.20;;;4.67;;
7531;SDS011;3807;49.030;8.714;2022-09-24T14:51:57;7.23;;;3.97;;
7531;SDS011;3807;49.030;8.714;2022-09-24T14:57:11;7.20;;;4.27;;
7531;SDS011;3807;49.030;8.714;2022-09-24T14:59:42;6.33;;;4.73;;
7531;SDS011;3807;49.030;8.714;2022-09-24T15:04:51;7.17;;;4.13;;
7531;SDS011;3807;49.030;8.714;2022-09-24T15:07:29;5.90;;;4.43;;
7531;SDS011;3807;49.030;8.714;2022-09-24T15:09:57;10.70;;;4.70;;
7531;SDS011;3807;49.030;8.714;2022-09-24T15:12:25;4.43;;;4.03;;
7531;SDS011;3807;49.030;8.714;2022-09-24T15:14:56;5.03;;;4.27;;
7531;SDS011;3807;49.030;8.714;2022-09-24T15:17:28;6.90;;;5.17;;
7531;SDS011;3807;49.030;8.714;2022-09-24T15:19:56;7.70;;;4.20;;
7531;SDS011;3807;49.030;8.714;2022-09-24T15:22:22;7.77;;;5.50;;
7531;SDS011;3807;49.030;8.714;2022-09-24T15:24:50;5.27;;;4.77;;
7531;SDS011;3807;49.030;8.714;2022-09-24T15:27:29;7.37;;;4.90;;
7531;SDS011;3807;49.030;8.714;2022-09-24T15:29:56;6.13;;;5.03;;
7531;SDS011;3807;49.030;8.714;2022-09-24T15:32:24;7.37;;;5.83;;
7531;SDS011;3807;49.030;8.714;2022-09-24T15:34:51;5.77;;;4.60;;
7531;SDS011;3807;49.030;8.714;2022-09-24T15:37:18;10.17;;;5.47;;
7531;SDS011;3807;49.030;8.714;2022-09-24T15:39:46;11.57;;;5.63;;
7531;SDS011;3807;49.030;8.714;2022-09-24T15:42:17;7.43;;;5.30;;
7531;SDS011;3807;49.030;8.714;2022-09-24T15:44:44;9.53;;;5.83;;
7531;SDS011;3807;49.030;8.714;2022-09-24T15:47:10;8.17;;;5.80;;
7531;SDS011;3807;49.030;8.714;2022-09-24T15:49:36;6.97;;;4.83;;
7531;SDS011;3807;49.030;8.714;2022-09-24T15:52:04;8.70;;;5.07;;
7531;SDS011;3807;49.030;8.714;2022-09-24T15:54:33;9.53;;;4.80;;
7531;SDS011;3807;49.030;8.714;2022-09-24T15:56:58;6.67;;;4.67;;
7531;SDS011;3807;49.030;8.714;2022-09-24T15:59:25;7.37;;;5.03;;
7531;SDS011;3807;49.030;8.714;2022-09-24T16:01:51;4.80;;;4.10;;
7531;SDS011;3807;49.030;8.714;2022-09-24T16:04:18;6.37;;;4.10;;
7531;SDS011;3807;49.030;8.714;2022-09-24T16:06:44;6.60;;;4.60;;
7531;SDS011;3807;49.030;8.714;2022-09-24T16:09:09;5.10;;;4.20;;
7531;SDS011;3807;49.030;8.714;2022-09-24T16:11:35;6.73;;;4.80;;
7531;SDS011;3807;49.030;8.714;2022-09-24T16:14:00;5.20;;;4.50;;
7531;SDS011;3807;49.030;8.714;2022-09-24T16:16:25;6.77;;;4.50;;
7531;SDS011;3807;49.030;8.714;2022-09-24T16:18:51;7.10;;;4.73;;
7531;SDS011;3807;49.030;8.714;2022-09-24T16:21:17;6.90;;;4.50;;
7531;SDS011;3807;49.030;8.714;2022-09-24T16:23:42;5.53;;;4.50;;
7531;SDS011;3807;49.030;8.714;2022-09-24T16:26:08;5.67;;;4.40;;
7531;SDS011;3807;49.030;8.714;2022-09-24T16:28:34;5.20;;;4.17;;
7531;SDS011;3807;49.030;8.714;2022-09-24T16:31:03;6.40;;;4.53;;
7531;SDS011;3807;49.030;8.714;2022-09-24T16:33:30;7.67;;;4.40;;
7531;SDS011;3807;49.030;8.714;2022-09-24T16:35:55;6.17;;;4.97;;
7531;SDS011;3807;49.030;8.714;2022-09-24T16:38:20;6.17;;;4.57;;
7531;SDS011;3807;49.030;8.714;2022-09-24T16:40:46;5.83;;;5.10;;
7531;SDS011;3807;49.030;8.714;2022-09-24T16:43:11;6.77;;;5.30;;
7531;SDS011;3807;49.030;8.714;2022-09-24T16:45:36;6.03;;;5.43;;
7531;SDS011;3807;49.030;8.714;2022-09-24T16:48:02;6.00;;;5.27;;
7531;SDS011;3807;49.030;8.714;2022-09-24T16:50:27;7.77;;;5.53;;
7531;SDS011;3807;49.030;8.714;2022-09-24T16:52:53;8.70;;;5.17;;
7531;SDS011;3807;49.030;8.714;2022-09-24T16:55:19;7.63;;;5.00;;
7531;SDS011;3807;49.030;8.714;2022-09-24T16:57:48;6.33;;;5.40;;
7531;SDS011;3807;49.030;8.714;2022-09-24T17:00:13;8.93;;;6.10;;
7531;SDS011;3807;49.030;8.714;2022-09-24T17:02:39;6.20;;;5.23;;
7531;SDS011;3807;49.030;8.714;2022-09-24T17:05:04;8.13;;;6.00;;
7531;SDS011;3807;49.030;8.714;2022-09-24T17:07:31;8.57;;;5.80;;
7531;SDS011;3807;49.030;8.714;2022-09-24T17:09:56;9.13;;;7.23;;
7531;SDS011;3807;49.030;8.714;2022-09-24T17:12:39;8.40;;;7.23;;
7531;SDS011;3807;49.030;8.714;2022-09-24T17:15:05;11.37;;;7.23;;
7531;SDS011;3807;49.030;8.714;2022-09-24T17:17:31;10.10;;;7.27;;
7531;SDS011;3807;49.030;8.714;2022-09-24T17:19:56;11.10;;;8.03;;
7531;SDS011;3807;49.030;8.714;2022-09-24T17:22:22;9.60;;;7.30;;